Time;durP1;ratioP1;P1;durP2;ratioP2;P2;SDS_P1;SDS_P2;PMS_P1;PMS_P2;Temp;Humidity;BMP_temperature;BMP_pressure;BME280_temperature;BME280_humidity;BME280_pressure;Samples;Min_cycle;Max_cycle;Signal;HPM_P1;HPM_P2
2022/06/25 00:01:16;;;;;;;7.80;1.80;;;;;;;19.89;65.98;97206.66;5039908;28;20234;-69
2022/06/25 00:03:42;;;;;;;1.80;1.70;;;;;;;19.87;65.89;97216.69;5039911;28;20198;-70
2022/06/25 00:06:08;;;;;;;3.20;1.87;;;;;;;19.86;65.61;97215.00;5041691;28;20218;-68
2022/06/25 00:08:35;;;;;;;1.77;1.67;;;;;;;19.91;65.39;97213.38;5040806;28;20469;-69
2022/06/25 00:11:01;;;;;;;10.50;2.00;;;;;;;19.97;65.51;97206.41;5053248;28;20548;-70
2022/06/25 00:13:26;;;;;;;2.27;1.73;;;;;;;20.02;65.20;97213.72;5052761;28;20426;-71
2022/06/25 00:15:52;;;;;;;4.63;2.00;;;;;;;20.03;64.58;97208.22;5048602;28;20179;-70
2022/06/25 00:18:17;;;;;;;3.03;2.00;;;;;;;20.00;64.69;97213.13;5052035;28;20210;-70
2022/06/25 00:20:44;;;;;;;6.93;1.90;;;;;;;20.01;64.53;97217.41;5047165;28;20191;-70
2022/06/25 00:23:10;;;;;;;3.90;1.90;;;;;;;20.00;64.07;97215.78;5049916;28;20179;-70
2022/06/25 00:25:36;;;;;;;4.53;1.53;;;;;;;19.99;64.40;97225.63;5050136;28;20425;-70
2022/06/25 00:28:01;;;;;;;2.50;2.00;;;;;;;19.98;64.53;97231.97;5047736;28;20215;-70
2022/06/25 00:30:28;;;;;;;5.30;1.87;;;;;;;19.99;64.06;97222.97;5051935;28;20183;-70
2022/06/25 00:32:54;;;;;;;2.10;1.93;;;;;;;20.03;64.00;97220.69;5051853;28;20194;-70
2022/06/25 00:35:19;;;;;;;7.07;1.77;;;;;;;19.98;64.23;97226.66;5049930;28;20455;-68
2022/06/25 00:37:44;;;;;;;4.27;1.90;;;;;;;19.97;64.29;97221.56;5051325;28;20234;-68
2022/06/25 00:40:11;;;;;;;4.43;2.00;;;;;;;20.00;63.98;97218.44;5051309;28;20234;-69
2022/06/25 00:42:37;;;;;;;3.77;1.90;;;;;;;19.94;63.98;97220.94;5053229;28;20179;-69
2022/06/25 00:45:03;;;;;;;3.70;1.70;;;;;;;19.93;64.01;97215.81;5052718;28;20483;-71
2022/06/25 00:47:28;;;;;;;3.00;1.97;;;;;;;19.91;63.95;97217.91;5050531;28;20273;-69
2022/06/25 00:49:54;;;;;;;8.50;2.00;;;;;;;19.79;63.87;97225.69;5052727;28;20178;-69
2022/06/25 00:52:21;;;;;;;3.30;2.13;;;;;;;19.75;64.44;97225.28;5044091;28;20657;-69
2022/06/25 00:54:51;;;;;;;3.33;2.00;;;;;;;19.73;64.37;97222.03;5042741;28;20195;-69
2022/06/25 00:57:24;;;;;;;2.33;2.17;;;;;;;19.77;63.84;97227.72;5046777;28;20826;-69
2022/06/25 00:59:50;;;;;;;6.40;2.10;;;;;;;19.73;64.21;97231.81;5052029;28;20476;-70
2022/06/25 01:02:16;;;;;;;2.60;2.13;;;;;;;19.78;64.28;97232.03;5050099;28;20442;-70
2022/06/25 01:04:42;;;;;;;3.47;1.80;;;;;;;19.78;64.16;97224.84;5046815;28;20492;-70
2022/06/25 01:07:08;;;;;;;2.80;1.67;;;;;;;19.83;64.14;97231.38;5048280;28;20536;-70
2022/06/25 01:09:34;;;;;;;3.30;2.00;;;;;;;19.84;63.95;97238.34;5051565;28;20179;-70
2022/06/25 01:12:00;;;;;;;2.23;1.50;;;;;;;19.82;63.75;97235.06;5051465;28;20448;-70
2022/06/25 01:14:26;;;;;;;3.80;2.00;;;;;;;19.79;63.93;97226.47;5051050;28;20425;-70
2022/06/25 01:16:51;;;;;;;3.57;2.00;;;;;;;19.69;63.71;97231.44;5051325;28;20194;-70
2022/06/25 01:19:17;;;;;;;4.53;1.90;;;;;;;19.75;64.34;97232.44;5050040;28;20198;-69
2022/06/25 01:21:42;;;;;;;2.13;1.87;;;;;;;19.79;64.01;97226.47;5051204;28;20632;-69
2022/06/25 01:24:08;;;;;;;2.70;1.70;;;;;;;19.82;63.56;97245.69;5051222;28;20816;-69
2022/06/25 01:26:39;;;;;;;1.83;1.73;;;;;;;19.80;63.25;97232.63;5046617;28;20646;-68
2022/06/25 01:29:05;;;;;;;2.00;1.90;;;;;;;19.82;63.53;97240.38;5051183;28;20650;-69
2022/06/25 01:31:30;;;;;;;3.10;1.73;;;;;;;19.79;63.58;97231.00;5051861;28;20455;-69
2022/06/25 01:33:56;;;;;;;5.93;2.30;;;;;;;19.82;63.46;97241.22;5050155;28;20666;-69
2022/06/25 01:36:21;;;;;;;2.80;1.80;;;;;;;19.79;63.32;97242.44;5050673;28;20194;-71
2022/06/25 01:38:48;;;;;;;2.03;1.73;;;;;;;19.77;63.08;97239.19;5051326;28;20313;-69
2022/06/25 01:41:13;;;;;;;2.17;1.57;;;;;;;19.62;63.84;97235.97;5059002;28;20435;-70
2022/06/25 01:43:39;;;;;;;5.67;1.93;;;;;;;19.50;64.51;97235.78;5051304;28;20692;-69
2022/06/25 01:46:06;;;;;;;6.10;1.70;;;;;;;19.49;64.38;97244.78;5060998;28;20190;-68
2022/06/25 01:48:32;;;;;;;4.43;1.83;;;;;;;19.47;64.43;97245.00;5053114;28;20199;-69
2022/06/25 01:50:57;;;;;;;6.57;1.60;;;;;;;19.42;64.59;97244.78;5050879;28;20426;-70
2022/06/25 01:53:23;;;;;;;1.73;1.63;;;;;;;19.42;64.80;97242.13;5048560;28;20274;-70
2022/06/25 01:55:48;;;;;;;2.40;1.90;;;;;;;19.41;64.39;97245.81;5050810;28;20241;-69
2022/06/25 01:58:14;;;;;;;5.27;1.70;;;;;;;19.42;64.84;97242.13;5050218;28;20213;-69
2022/06/25 02:00:39;;;;;;;3.50;1.80;;;;;;;19.38;64.65;97251.56;5050660;28;20309;-69
2022/06/25 02:03:05;;;;;;;3.17;1.83;;;;;;;19.29;64.29;97252.78;5049814;28;20191;-70
2022/06/25 02:08:16;;;;;;;2.00;1.70;;;;;;;19.27;65.05;97246.91;5058326;28;20298;-69
2022/06/25 02:10:44;;;;;;;6.50;1.73;;;;;;;19.28;65.11;97252.00;5050662;28;20426;-69
2022/06/25 02:13:09;;;;;;;3.00;1.70;;;;;;;19.28;65.03;97243.22;5051323;28;20437;-69
2022/06/25 02:15:35;;;;;;;5.17;1.70;;;;;;;19.34;64.94;97255.66;5050828;28;20425;-69
2022/06/25 02:18:01;;;;;;;4.80;1.70;;;;;;;19.38;64.69;97253.41;5050078;28;20250;-69
2022/06/25 02:20:27;;;;;;;3.43;1.50;;;;;;;19.36;64.67;97255.44;5050725;28;20187;-69
2022/06/25 02:22:52;;;;;;;2.90;1.70;;;;;;;19.40;64.09;97260.16;5050662;28;20194;-68
2022/06/25 02:25:18;;;;;;;1.63;1.53;;;;;;;19.37;64.17;97260.56;5050036;28;20566;-69
2022/06/25 02:27:43;;;;;;;4.13;1.80;;;;;;;19.37;64.44;97267.69;5050570;28;20195;-70
2022/06/25 02:30:09;;;;;;;7.40;1.83;;;;;;;19.41;64.15;97267.06;5049774;28;20586;-69
2022/06/25 02:32:35;;;;;;;2.87;1.90;;;;;;;19.43;64.26;97265.03;5049149;28;20179;-70
2022/06/25 02:35:01;;;;;;;3.43;1.87;;;;;;;19.41;63.76;97271.59;5050419;28;20232;-69
2022/06/25 02:37:26;;;;;;;3.53;1.83;;;;;;;19.37;64.21;97271.19;5049909;28;20281;-69
2022/06/25 02:39:52;;;;;;;1.90;1.80;;;;;;;19.34;64.21;97264.44;5050417;28;20469;-69
2022/06/25 02:42:17;;;;;;;4.10;2.00;;;;;;;19.37;63.95;97268.53;5050024;28;20195;-70
2022/06/25 02:44:43;;;;;;;3.97;1.80;;;;;;;19.37;63.68;97271.19;5051748;28;20270;-68
2022/06/25 02:47:08;;;;;;;2.53;1.60;;;;;;;19.34;63.57;97274.25;5048678;28;20700;-70
2022/06/25 02:49:34;;;;;;;1.60;1.50;;;;;;;19.30;63.95;97268.53;5050398;28;20187;-70
2022/06/25 02:51:59;;;;;;;1.70;1.60;;;;;;;19.28;63.69;97270.59;5050078;28;20269;-69
2022/06/25 02:54:25;;;;;;;1.87;1.63;;;;;;;19.25;64.05;97270.19;5048692;28;20735;-69
2022/06/25 02:59:38;;;;;;;6.60;1.70;;;;;;;19.33;63.89;97277.94;5043281;28;20662;-69
2022/06/25 03:02:04;;;;;;;4.80;1.57;;;;;;;19.36;63.71;97274.03;5048972;28;20421;-69
2022/06/25 03:04:29;;;;;;;1.90;1.70;;;;;;;19.39;63.25;97273.63;5052265;28;20186;-68
2022/06/25 03:06:55;;;;;;;1.93;1.50;;;;;;;19.22;63.52;97270.59;5053583;28;20302;-70
2022/06/25 03:09:21;;;;;;;5.00;1.50;;;;;;;19.26;63.20;97275.28;5053634;28;20190;-69
2022/06/25 03:11:46;;;;;;;8.57;1.87;;;;;;;19.24;63.37;97276.53;5053974;28;20561;-70
2022/06/25 03:14:12;;;;;;;1.90;1.80;;;;;;;19.24;63.47;97268.56;5045931;28;20190;-69
2022/06/25 03:16:37;;;;;;;4.23;2.10;;;;;;;19.22;63.54;97266.09;5053504;28;20379;-69
2022/06/25 03:19:03;;;;;;;2.10;1.57;;;;;;;19.28;63.63;97269.78;5053398;28;20218;-71
2022/06/25 03:21:29;;;;;;;1.87;1.60;;;;;;;19.26;63.71;97269.16;5053952;28;20180;-68
2022/06/25 03:23:55;;;;;;;2.00;1.60;;;;;;;19.14;63.78;97264.47;5052011;28;20194;-70
2022/06/25 03:26:20;;;;;;;2.23;1.90;;;;;;;19.21;63.75;97268.97;5052994;28;20292;-70
2022/06/25 03:28:46;;;;;;;4.27;1.80;;;;;;;19.16;63.81;97267.72;5052377;28;20206;-69
2022/06/25 03:31:12;;;;;;;3.63;1.90;;;;;;;19.13;64.01;97269.97;5053897;28;20198;-68
2022/06/25 03:33:38;;;;;;;4.67;2.00;;;;;;;18.94;64.55;97261.84;5052506;28;20936;-69
2022/06/25 03:36:03;;;;;;;4.00;2.13;;;;;;;18.87;64.73;97256.50;5053184;28;20197;-70
2022/06/25 03:38:29;;;;;;;6.30;1.70;;;;;;;18.93;64.48;97256.69;5052984;28;20473;-70
2022/06/25 03:41:32;;;;;;;6.27;2.07;;;;;;;18.96;64.46;97262.44;5053517;28;20187;-70
2022/06/25 03:43:40;;;;;;;2.57;2.00;;;;;;;18.93;64.34;97264.66;5053218;28;20265;-69
2022/06/25 03:46:06;;;;;;;2.40;2.00;;;;;;;18.90;64.54;97263.22;5042275;28;21895;-69
2022/06/25 03:48:32;;;;;;;4.80;1.67;;;;;;;18.92;64.50;97258.53;5052279;28;20450;-69
2022/06/25 03:50:57;;;;;;;5.83;1.70;;;;;;;18.84;64.16;97256.91;5048068;28;20202;-70
2022/06/25 03:53:23;;;;;;;3.10;1.70;;;;;;;18.86;64.50;97262.81;5022153;28;20278;-70
2022/06/25 03:55:48;;;;;;;3.23;1.97;;;;;;;18.86;64.59;97265.47;5052355;28;20438;-69
2022/06/25 03:58:14;;;;;;;3.57;2.27;;;;;;;18.87;64.51;97256.50;5051744;28;20213;-70
2022/06/25 04:00:39;;;;;;;4.00;2.33;;;;;;;18.94;64.43;97271.63;5052077;28;20248;-70
2022/06/25 04:03:05;;;;;;;1.77;1.67;;;;;;;19.00;64.45;97270.81;5059883;28;20183;-69
2022/06/25 04:05:30;;;;;;;3.30;1.70;;;;;;;19.05;64.60;97278.16;5052406;28;20727;-71
2022/06/25 04:07:56;;;;;;;3.60;2.00;;;;;;;19.06;64.53;97275.28;5052316;28;20207;-69
2022/06/25 04:10:22;;;;;;;2.70;1.80;;;;;;;19.09;64.40;97268.78;5050629;28;20267;-69
2022/06/25 04:12:47;;;;;;;7.93;2.03;;;;;;;19.07;64.64;97273.47;5053024;28;20194;-69
2022/06/25 04:15:12;;;;;;;5.47;1.70;;;;;;;19.09;64.54;97280.19;5050813;28;20233;-70
2022/06/25 04:17:38;;;;;;;2.30;2.10;;;;;;;19.06;64.79;97280.59;5051657;28;20211;-69
2022/06/25 04:20:04;;;;;;;2.00;1.80;;;;;;;19.07;65.02;97284.09;5048963;28;20225;-68
2022/06/25 04:22:29;;;;;;;2.70;1.90;;;;;;;19.05;65.02;97283.47;5049704;28;20236;-69
2022/06/25 04:24:55;;;;;;;4.53;1.77;;;;;;;19.11;65.04;97291.44;5056017;28;20183;-69
2022/06/25 04:30:05;;;;;;;5.93;1.70;;;;;;;19.15;64.79;97289.19;5051875;28;20616;-68
2022/06/25 04:32:30;;;;;;;8.70;1.63;;;;;;;19.23;64.52;97285.50;5052027;28;20916;-68
2022/06/25 04:34:56;;;;;;;1.60;1.50;;;;;;;19.20;64.73;97286.75;5060068;28;20449;-68
2022/06/25 04:37:21;;;;;;;2.97;1.73;;;;;;;19.24;64.97;97287.16;5047822;28;20681;-68
2022/06/25 04:39:47;;;;;;;1.90;1.80;;;;;;;19.28;65.54;97294.50;5051916;28;20225;-69
2022/06/25 04:42:12;;;;;;;3.00;1.97;;;;;;;19.26;65.88;97298.38;5051632;28;20209;-68
2022/06/25 04:44:38;;;;;;;1.90;1.50;;;;;;;19.28;65.80;97293.69;5052133;28;20183;-68
2022/06/25 04:47:03;;;;;;;4.47;1.80;;;;;;;19.30;66.11;97308.41;5050578;28;20557;-70
2022/06/25 04:49:29;;;;;;;5.67;1.80;;;;;;;19.22;66.37;97311.25;5051921;28;20220;-68
2022/06/25 04:51:54;;;;;;;2.10;1.90;;;;;;;19.15;65.73;97311.25;5057462;28;20268;-68
2022/06/25 04:54:20;;;;;;;3.00;1.73;;;;;;;19.17;66.28;97308.41;5052202;28;20191;-68
2022/06/25 04:56:45;;;;;;;5.10;1.87;;;;;;;19.17;66.53;97303.91;5051032;28;20191;-69
2022/06/25 04:59:11;;;;;;;2.07;1.87;;;;;;;19.25;66.69;97312.69;5050864;28;20215;-69
2022/06/25 05:01:36;;;;;;;2.40;1.60;;;;;;;19.34;66.69;97311.44;5051780;28;20270;-70
2022/06/25 05:04:02;;;;;;;3.50;1.77;;;;;;;19.37;66.26;97316.38;5055968;28;20583;-69
2022/06/25 05:06:28;;;;;;;2.20;1.73;;;;;;;19.39;66.23;97311.66;5059097;28;20623;-70
2022/06/25 05:08:53;;;;;;;2.00;1.67;;;;;;;19.49;66.37;97312.06;5051237;28;20199;-69
2022/06/25 05:11:18;;;;;;;2.80;1.80;;;;;;;19.57;65.90;97321.66;5051065;28;20187;-69
2022/06/25 05:13:44;;;;;;;2.10;1.90;;;;;;;19.58;66.90;97319.78;5051399;28;20190;-69
2022/06/25 05:16:09;;;;;;;2.07;1.60;;;;;;;19.57;66.47;97329.63;5050460;28;20210;-69
2022/06/25 05:18:35;;;;;;;5.57;1.50;;;;;;;19.65;66.08;97336.56;5050559;28;20639;-69
2022/06/25 05:21:01;;;;;;;1.83;1.33;;;;;;;19.77;65.51;97334.91;5051026;28;20190;-69
2022/06/25 05:23:27;;;;;;;2.47;1.50;;;;;;;19.90;65.28;97342.06;5048339;28;20210;-70
2022/06/25 05:25:52;;;;;;;3.00;1.67;;;;;;;20.05;64.82;97336.47;5046618;28;20437;-69
2022/06/25 05:28:18;;;;;;;3.83;1.60;;;;;;;20.18;65.11;97329.47;5057290;28;20199;-70
2022/06/25 05:30:44;;;;;;;1.80;1.70;;;;;;;20.31;65.31;97323.28;5051367;28;20719;-69
2022/06/25 05:33:09;;;;;;;1.80;1.33;;;;;;;20.41;64.71;97320.97;5049843;28;20209;-69
2022/06/25 05:35:35;;;;;;;6.73;2.23;;;;;;;20.48;64.04;97328.94;5050968;28;20646;-68
2022/06/25 05:38:00;;;;;;;6.20;1.57;;;;;;;20.55;63.34;97329.69;5050936;28;20230;-69
2022/06/25 05:40:26;;;;;;;1.43;1.20;;;;;;;20.53;62.27;97332.59;5048955;28;20748;-69
2022/06/25 05:42:51;;;;;;;1.40;1.30;;;;;;;20.58;62.47;97333.81;5049741;28;20187;-69
2022/06/25 05:45:17;;;;;;;1.60;1.27;;;;;;;20.71;62.53;97333.72;5050303;28;20186;-68
2022/06/25 05:47:42;;;;;;;6.50;1.60;;;;;;;20.85;62.11;97334.47;5050144;28;20203;-69
2022/06/25 05:50:08;;;;;;;1.83;1.53;;;;;;;20.78;61.24;97333.72;5050202;28;20183;-69
2022/06/25 05:52:34;;;;;;;1.40;1.20;;;;;;;20.90;61.13;97334.66;5043859;28;20186;-69
2022/06/25 05:55:00;;;;;;;3.67;1.30;;;;;;;21.04;61.14;97332.72;5051065;28;20844;-69
2022/06/25 05:57:25;;;;;;;4.33;1.30;;;;;;;21.16;60.30;97327.50;5049923;28;20673;-69
2022/06/25 05:59:51;;;;;;;4.40;1.50;;;;;;;21.17;60.04;97343.25;5050562;28;20211;-69
2022/06/25 06:02:16;;;;;;;4.30;1.43;;;;;;;21.27;59.93;97342.78;5046425;28;20183;-68
2022/06/25 06:04:42;;;;;;;2.67;1.40;;;;;;;21.35;60.27;97344.38;5050675;28;20194;-69
2022/06/25 06:07:07;;;;;;;3.63;1.77;;;;;;;21.45;60.18;97350.00;5048965;28;20203;-69
2022/06/25 06:09:33;;;;;;;5.43;1.40;;;;;;;21.55;59.57;97348.69;5050992;28;20670;-69
2022/06/25 06:11:59;;;;;;;1.40;1.30;;;;;;;21.70;59.87;97351.03;5051044;28;20225;-69
2022/06/25 06:14:25;;;;;;;5.23;1.20;;;;;;;21.84;59.98;97352.53;5050533;28;20189;-69
2022/06/25 06:16:51;;;;;;;1.97;1.07;;;;;;;21.92;59.43;97360.25;5051077;28;20262;-69
2022/06/25 06:19:16;;;;;;;1.20;1.10;;;;;;;21.94;58.73;97352.81;5050303;28;20568;-69
2022/06/25 06:21:43;;;;;;;1.27;1.17;;;;;;;22.05;58.78;97350.50;5050725;28;20190;-68
2022/06/25 06:24:08;;;;;;;3.40;1.60;;;;;;;22.06;58.51;97355.59;5048359;28;20187;-69
2022/06/25 06:26:34;;;;;;;4.23;1.20;;;;;;;22.00;57.30;97359.13;5047633;28;20922;-69
2022/06/25 06:29:00;;;;;;;4.20;1.20;;;;;;;22.07;58.39;97359.88;5046964;28;20229;-69
2022/06/25 06:31:25;;;;;;;1.30;1.20;;;;;;;22.04;57.87;97362.19;5047123;28;20305;-69
2022/06/25 06:33:51;;;;;;;2.17;1.20;;;;;;;22.20;57.58;97366.91;5049019;28;20206;-69
2022/06/25 06:36:16;;;;;;;1.27;1.17;;;;;;;22.31;57.68;97367.19;5050528;28;20187;-68
2022/06/25 06:38:42;;;;;;;3.60;1.13;;;;;;;22.47;57.25;97365.81;5051355;28;20293;-69
2022/06/25 06:41:08;;;;;;;1.67;1.20;;;;;;;22.62;56.81;97373.44;5054294;28;20225;-69
2022/06/25 06:43:33;;;;;;;1.70;1.23;;;;;;;22.76;56.65;97372.22;5054275;28;20438;-69
2022/06/25 06:45:59;;;;;;;1.73;1.10;;;;;;;22.84;55.58;97366.53;5054371;28;20263;-70
2022/06/25 06:48:24;;;;;;;5.00;1.00;;;;;;;22.96;55.96;97361.25;5049005;28;20210;-70
2022/06/25 06:50:50;;;;;;;1.33;1.10;;;;;;;23.17;56.02;97359.06;5035661;28;20188;-69
2022/06/25 06:53:15;;;;;;;1.83;1.10;;;;;;;23.21;54.78;97370.97;5044527;28;20615;-69
2022/06/25 06:55:41;;;;;;;2.43;1.47;;;;;;;23.36;54.05;97351.81;5036609;28;20192;-69
2022/06/25 06:58:06;;;;;;;3.60;1.50;;;;;;;23.49;53.99;97361.47;5038602;28;20203;-69
2022/06/25 07:00:32;;;;;;;1.30;1.20;;;;;;;23.63;53.52;97356.69;5040343;28;20261;-69
2022/06/25 07:02:57;;;;;;;2.00;1.03;;;;;;;23.80;53.26;97364.81;5037639;28;20191;-70
2022/06/25 07:05:23;;;;;;;1.20;1.10;;;;;;;23.98;53.16;97365.78;5035821;28;20761;-69
2022/06/25 07:07:48;;;;;;;2.67;1.27;;;;;;;24.04;52.86;97365.66;5034862;28;20242;-70
2022/06/25 07:10:14;;;;;;;1.23;1.13;;;;;;;24.12;52.40;97364.47;5044162;28;20191;-70
2022/06/25 07:12:40;;;;;;;2.80;1.20;;;;;;;24.07;51.89;97361.69;5044333;28;20270;-71
2022/06/25 07:15:06;;;;;;;4.53;1.20;;;;;;;24.27;52.57;97361.28;5048911;28;20646;-68
2022/06/25 07:17:31;;;;;;;7.30;1.70;;;;;;;24.28;51.13;97362.94;5046793;28;20207;-69
2022/06/25 07:19:57;;;;;;;2.83;1.20;;;;;;;24.34;50.94;97358.47;5042206;28;20489;-70
2022/06/25 07:22:22;;;;;;;5.90;1.40;;;;;;;24.50;51.33;97359.59;5049048;28;20191;-70
2022/06/25 07:24:48;;;;;;;3.77;1.50;;;;;;;24.53;50.54;97353.75;5048587;28;20179;-70
2022/06/25 07:27:13;;;;;;;11.67;1.60;;;;;;;24.63;50.52;97351.28;5053803;28;20213;-69
2022/06/25 07:29:39;;;;;;;1.60;1.13;;;;;;;24.81;50.56;97349.50;5054368;28;20175;-70
2022/06/25 07:32:04;;;;;;;7.10;1.63;;;;;;;24.92;49.87;97353.13;5054570;28;20209;-71
2022/06/25 07:34:30;;;;;;;1.40;1.30;;;;;;;25.04;49.48;97353.09;5053808;28;20266;-71
2022/06/25 07:36:55;;;;;;;3.27;1.47;;;;;;;25.06;48.25;97345.63;5053529;28;20183;-70
2022/06/25 07:39:21;;;;;;;1.63;1.30;;;;;;;25.07;47.98;97347.25;5053523;28;20238;-70
2022/06/25 07:41:46;;;;;;;4.73;1.80;;;;;;;24.97;48.04;97348.69;5053620;28;20194;-70
2022/06/25 07:44:12;;;;;;;2.43;1.40;;;;;;;25.04;48.59;97348.53;5053118;28;20650;-71
2022/06/25 07:46:37;;;;;;;2.63;1.20;;;;;;;25.14;47.37;97337.16;5052237;28;20199;-70
2022/06/25 07:49:03;;;;;;;3.17;1.43;;;;;;;25.11;47.19;97333.09;5044982;28;20202;-70
2022/06/25 07:54:12;;;;;;;4.17;1.50;;;;;;;25.60;46.98;97335.22;5046029;28;20195;-69
2022/06/25 07:56:38;;;;;;;1.60;1.40;;;;;;;25.77;47.93;97334.38;5044560;28;20460;-69
2022/06/25 07:59:03;;;;;;;1.60;1.50;;;;;;;25.99;47.64;97330.88;5043467;28;20720;-70
2022/06/25 08:01:29;;;;;;;2.93;1.47;;;;;;;25.98;46.48;97326.56;5049966;28;20190;-69
2022/06/25 08:03:54;;;;;;;4.43;1.30;;;;;;;25.85;47.41;97322.41;5048922;28;20207;-70
2022/06/25 08:06:20;;;;;;;5.30;1.40;;;;;;;25.69;46.86;97324.06;5051359;28;20175;-70
2022/06/25 08:08:45;;;;;;;2.93;1.67;;;;;;;25.56;46.22;97323.38;5049333;28;20262;-69
2022/06/25 08:11:11;;;;;;;2.17;1.50;;;;;;;25.49;46.34;97317.34;5045916;28;20620;-68
2022/06/25 08:13:37;;;;;;;3.33;1.40;;;;;;;25.70;47.48;97317.66;5044559;28;20232;-69
2022/06/25 08:16:09;;;;;;;2.93;1.30;;;;;;;25.60;46.31;97313.75;5046425;28;20196;-69
2022/06/25 08:18:34;;;;;;;2.57;1.53;;;;;;;25.75;46.02;97315.00;5038765;28;20488;-69
2022/06/25 08:21:00;;;;;;;9.23;1.60;;;;;;;25.82;45.84;97312.97;5045503;28;20914;-69
2022/06/25 08:23:25;;;;;;;1.70;1.43;;;;;;;25.84;45.08;97318.09;5044583;28;20607;-68
2022/06/25 08:25:51;;;;;;;1.70;1.27;;;;;;;26.00;45.52;97321.78;5052920;28;20186;-70
2022/06/25 08:28:18;;;;;;;2.40;1.43;;;;;;;26.26;46.07;97324.78;5052101;28;20203;-69
2022/06/25 08:30:43;;;;;;;3.23;1.50;;;;;;;26.21;44.86;97323.66;5058984;28;20182;-69
2022/06/25 08:33:09;;;;;;;4.87;1.33;;;;;;;26.51;44.39;97317.03;5053981;28;20519;-69
2022/06/25 08:35:35;;;;;;;2.03;1.63;;;;;;;26.79;43.66;97320.56;5052669;28;20182;-69
2022/06/25 08:38:02;;;;;;;2.83;1.40;;;;;;;27.14;44.45;97311.16;5052394;28;20203;-69
2022/06/25 08:40:28;;;;;;;1.73;1.30;;;;;;;27.43;43.52;97316.22;5051920;28;20241;-70
2022/06/25 08:42:53;;;;;;;5.10;1.20;;;;;;;27.51;42.47;97322.19;5052141;28;20487;-69
2022/06/25 08:45:19;;;;;;;2.10;1.33;;;;;;;27.29;41.53;97318.53;5054177;28;20433;-70
2022/06/25 08:47:47;;;;;;;6.10;1.40;;;;;;;27.05;42.40;97310.03;5052778;28;20207;-68
2022/06/25 08:50:14;;;;;;;6.40;1.50;;;;;;;26.77;42.86;97317.28;5051747;28;20479;-68
2022/06/25 08:52:45;;;;;;;3.20;1.47;;;;;;;26.49;43.65;97319.16;5044581;28;20452;-71
2022/06/25 08:55:20;;;;;;;2.50;1.40;;;;;;;26.30;44.19;97320.56;5043978;28;21152;-69
2022/06/25 08:57:46;;;;;;;3.97;1.57;;;;;;;26.23;44.28;97310.00;5055107;28;20451;-69
2022/06/25 09:00:12;;;;;;;3.37;1.40;;;;;;;26.31;45.03;97303.38;5049873;28;20472;-69
2022/06/25 09:02:39;;;;;;;2.93;1.50;;;;;;;26.58;43.50;97307.97;5041594;28;20429;-70
2022/06/25 09:05:08;;;;;;;2.73;1.20;;;;;;;26.63;43.09;97305.31;5045235;28;20541;-67
2022/06/25 09:07:34;;;;;;;1.50;1.10;;;;;;;26.73;43.23;97313.47;5042783;28;20445;-70
2022/06/25 09:09:59;;;;;;;4.87;1.40;;;;;;;26.59;42.49;97312.28;5048340;28;20483;-69
2022/06/25 09:12:25;;;;;;;3.00;1.40;;;;;;;26.43;42.98;97287.94;5044218;28;20179;-71
2022/06/25 09:14:50;;;;;;;9.57;1.83;;;;;;;26.31;43.16;97300.69;5043889;28;20190;-69
2022/06/25 09:17:16;;;;;;;2.30;1.60;;;;;;;26.15;43.07;97297.03;5046199;28;20685;-70
2022/06/25 09:19:44;;;;;;;2.70;1.50;;;;;;;26.06;43.06;97296.63;5044273;28;20231;-70
2022/06/25 09:22:12;;;;;;;4.87;1.50;;;;;;;26.48;43.33;97287.97;5046749;28;20678;-70
2022/06/25 09:24:51;;;;;;;4.50;1.50;;;;;;;26.82;42.49;97282.41;5043447;28;20922;-69
2022/06/25 09:27:36;;;;;;;1.63;1.30;;;;;;;27.05;42.12;97283.13;5051200;28;20540;-69
2022/06/25 09:30:19;;;;;;;1.63;1.10;;;;;;;27.35;41.70;97292.47;5051474;28;20508;-70
2022/06/25 09:32:48;;;;;;;3.00;1.37;;;;;;;27.44;40.13;97285.59;5043749;28;20933;-70
2022/06/25 09:35:28;;;;;;;5.33;1.40;;;;;;;27.35;39.42;97287.09;5039152;28;20488;-71
2022/06/25 09:38:00;;;;;;;3.03;1.50;;;;;;;27.51;40.23;97284.53;5041280;28;20489;-70
2022/06/25 09:40:25;;;;;;;1.40;1.30;;;;;;;27.16;40.29;97288.59;5040720;28;20558;-69
2022/06/25 09:42:51;;;;;;;2.90;1.70;;;;;;;27.09;40.89;97280.72;5036011;28;20517;-70
2022/06/25 09:45:16;;;;;;;3.90;1.87;;;;;;;27.46;39.92;97288.00;5041427;28;20276;-69
2022/06/25 09:47:45;;;;;;;8.53;1.90;;;;;;;27.67;38.71;97278.16;5038425;28;20660;-69
2022/06/25 09:50:11;;;;;;;6.83;1.80;;;;;;;28.01;39.64;97282.34;5042509;28;20190;-69
2022/06/25 09:52:38;;;;;;;3.90;1.27;;;;;;;28.14;39.22;97281.06;5041674;28;20434;-70
2022/06/25 09:55:04;;;;;;;2.30;1.27;;;;;;;28.35;38.92;97290.03;5042798;28;20179;-69
2022/06/25 09:57:31;;;;;;;3.90;1.50;;;;;;;28.64;39.13;97279.56;5041698;28;20442;-70
2022/06/25 09:59:59;;;;;;;3.60;1.60;;;;;;;28.87;39.39;97277.44;5035255;28;20555;-67
2022/06/25 10:02:28;;;;;;;1.47;1.20;;;;;;;28.98;38.01;97270.16;5040165;28;20465;-68
2022/06/25 10:04:59;;;;;;;3.90;1.40;;;;;;;29.05;36.93;97278.00;5037088;28;20432;-69
2022/06/25 10:07:59;;;;;;;1.83;1.40;;;;;;;29.14;36.90;97262.88;5043564;28;20449;-70
2022/06/25 10:10:16;;;;;;;3.97;1.57;;;;;;;29.08;37.03;97261.28;5038216;28;20936;-69
2022/06/25 10:12:41;;;;;;;1.43;1.30;;;;;;;29.14;37.09;97264.78;5041567;28;20458;-69
2022/06/25 10:15:07;;;;;;;3.20;1.23;;;;;;;29.31;37.03;97269.88;5019789;28;20471;-69
2022/06/25 10:17:32;;;;;;;5.67;1.40;;;;;;;29.38;36.19;97265.84;5036622;28;20211;-70
2022/06/25 10:19:58;;;;;;;3.53;1.80;;;;;;;29.51;35.54;97260.94;5038622;28;20291;-69
2022/06/25 10:22:24;;;;;;;3.23;1.37;;;;;;;29.64;34.87;97259.53;5045910;28;20189;-70
2022/06/25 10:24:50;;;;;;;1.87;1.67;;;;;;;29.73;34.28;97255.22;5039391;28;20206;-69
2022/06/25 10:27:16;;;;;;;4.20;1.40;;;;;;;29.49;35.13;97258.50;5033785;28;20811;-70
2022/06/25 10:29:51;;;;;;;6.77;1.50;;;;;;;29.24;35.97;97253.97;5045116;28;20186;-69
2022/06/25 10:32:18;;;;;;;4.67;1.70;;;;;;;29.38;36.77;97254.22;5036846;28;20183;-69
2022/06/25 10:34:58;;;;;;;3.23;1.40;;;;;;;29.58;36.42;97254.19;5046956;28;20599;-69
2022/06/25 10:37:23;;;;;;;8.37;1.37;;;;;;;29.75;35.86;97242.22;5038186;28;20827;-69
2022/06/25 10:39:53;;;;;;;2.00;1.50;;;;;;;29.92;35.29;97238.38;5042712;28;20469;-69
2022/06/25 10:45:14;;;;;;;3.00;1.37;;;;;;;30.23;34.90;97241.75;5039230;28;20436;-71
2022/06/25 10:47:41;;;;;;;3.10;1.20;;;;;;;30.38;33.25;97227.31;5036330;28;20454;-69
2022/06/25 10:50:22;;;;;;;1.87;1.30;;;;;;;30.42;33.40;97231.09;5041214;28;20479;-69
2022/06/25 10:53:03;;;;;;;2.70;1.40;;;;;;;30.52;32.47;97224.81;5040487;28;20422;-71
2022/06/25 10:55:35;;;;;;;1.97;1.40;;;;;;;30.55;32.76;97229.69;5039785;28;20469;-69
2022/06/25 10:58:14;;;;;;;1.83;1.43;;;;;;;30.60;32.93;97226.13;5038517;28;20442;-69
2022/06/25 11:00:46;;;;;;;2.20;1.30;;;;;;;30.67;32.14;97225.81;5032850;28;20560;-69
2022/06/25 11:03:12;;;;;;;3.03;1.40;;;;;;;30.58;31.61;97218.28;5041658;28;20937;-71
2022/06/25 11:05:47;;;;;;;3.50;1.60;;;;;;;30.66;32.73;97222.28;5036652;28;20432;-68
2022/06/25 11:08:13;;;;;;;7.53;1.80;;;;;;;30.79;32.86;97218.16;5043990;28;20702;-69
2022/06/25 11:10:40;;;;;;;6.37;1.40;;;;;;;30.37;31.63;97217.59;5039609;28;20449;-68
2022/06/25 11:13:05;;;;;;;23.57;2.80;;;;;;;30.48;31.26;97216.47;5041171;28;20612;-69
2022/06/25 11:15:42;;;;;;;1.77;1.40;;;;;;;30.74;32.66;97221.69;5043758;28;20430;-71
2022/06/25 11:18:12;;;;;;;7.50;1.37;;;;;;;30.86;32.73;97215.09;5035447;28;20199;-69
2022/06/25 11:20:38;;;;;;;7.30;1.70;;;;;;;31.02;32.35;97213.06;5049668;28;20449;-70
2022/06/25 11:23:05;;;;;;;5.00;1.43;;;;;;;30.80;31.46;97212.44;5040752;28;20807;-70
2022/06/25 11:28:51;;;;;;;7.80;1.47;;;;;;;31.20;32.28;97204.22;5047823;28;20983;-70
2022/06/25 11:31:26;;;;;;;5.77;1.20;;;;;;;30.74;32.03;97210.06;5053063;28;20429;-69
2022/06/25 11:33:53;;;;;;;1.30;1.13;;;;;;;30.68;32.42;97201.19;5047103;28;20449;-68
2022/06/25 11:36:19;;;;;;;4.57;1.50;;;;;;;30.85;33.17;97197.25;5052339;28;20482;-69
2022/06/25 11:38:53;;;;;;;5.40;1.20;;;;;;;31.04;32.65;97203.56;5053726;28;20472;-70
2022/06/25 11:41:23;;;;;;;3.33;1.30;;;;;;;31.10;31.95;97210.53;5054453;28;20433;-70
2022/06/25 11:43:48;;;;;;;3.27;1.40;;;;;;;30.95;31.09;97205.28;5052477;28;20430;-70
2022/06/25 11:46:18;;;;;;;3.70;1.50;;;;;;;31.02;31.21;97202.25;5052167;28;20995;-68
2022/06/25 11:48:45;;;;;;;1.63;1.13;;;;;;;31.09;30.87;97200.00;5052422;28;20195;-70